Pike, New York
Current Conditions -  °F | °C
As of 9:54 AM on Saturday 25 Oct 2014 (Local Time) from KDSV Reporting Station
Overcast Overcast  
Wind Chill: 53°   Ceiling: 4100
Heat Index: 53°   Visibility: 10mi
Dew Point: 44°   Wind: 8mph
Humidity: 71%   Direction: 140°SE
Pressure: 29.82"   Gusts: NA
Location:  42.56°N, 78.15°W
Report Text: KDSV 251354Z AUTO 14007KT 10SM OVC041 12/07 A2982 RMK AO2 SLP109 T01170067
Loading
Personal Weather Stations






























Interactive Weather Map New forecast layout! Learn more

10-Day Weather Forecast

Advertisements
Track Severe Weather on mobile